sensor_id;sensor_type;location;lat;lon;timestamp;P1;durP1;ratioP1;P2;durP2;ratioP2
67640;SDS011;54434;50.096;20.082;2023-02-22T00:02:58;16.10;;;5.40;;
67640;SDS011;54434;50.096;20.082;2023-02-22T00:05:35;17.30;;;5.10;;
67640;SDS011;54434;50.096;20.082;2023-02-22T00:08:13;18.50;;;5.10;;
67640;SDS011;54434;50.096;20.082;2023-02-22T00:10:51;18.60;;;5.40;;
67640;SDS011;54434;50.096;20.082;2023-02-22T00:13:28;16.80;;;4.90;;
67640;SDS011;54434;50.096;20.082;2023-02-22T00:16:05;20.40;;;5.20;;
67640;SDS011;54434;50.096;20.082;2023-02-22T00:18:45;18.70;;;5.90;;
67640;SDS011;54434;50.096;20.082;2023-02-22T00:21:22;15.20;;;5.00;;
67640;SDS011;54434;50.096;20.082;2023-02-22T00:23:59;18.50;;;6.20;;
67640;SDS011;54434;50.096;20.082;2023-02-22T00:26:50;19.40;;;6.00;;
67640;SDS011;54434;50.096;20.082;2023-02-22T00:29:28;18.80;;;6.20;;
67640;SDS011;54434;50.096;20.082;2023-02-22T00:32:07;21.60;;;6.10;;
67640;SDS011;54434;50.096;20.082;2023-02-22T00:34:45;21.90;;;6.30;;
67640;SDS011;54434;50.096;20.082;2023-02-22T00:37:24;17.20;;;6.40;;
67640;SDS011;54434;50.096;20.082;2023-02-22T00:40:04;21.90;;;7.30;;
67640;SDS011;54434;50.096;20.082;2023-02-22T00:42:42;21.80;;;6.50;;
67640;SDS011;54434;50.096;20.082;2023-02-22T00:45:21;19.40;;;5.90;;
67640;SDS011;54434;50.096;20.082;2023-02-22T00:47:59;21.50;;;6.10;;
67640;SDS011;54434;50.096;20.082;2023-02-22T00:50:37;18.60;;;5.00;;
67640;SDS011;54434;50.096;20.082;2023-02-22T00:53:15;21.10;;;5.90;;
67640;SDS011;54434;50.096;20.082;2023-02-22T00:55:52;14.00;;;5.50;;
67640;SDS011;54434;50.096;20.082;2023-02-22T00:58:29;15.80;;;5.30;;
67640;SDS011;54434;50.096;20.082;2023-02-22T01:01:06;19.50;;;5.60;;
67640;SDS011;54434;50.096;20.082;2023-02-22T01:03:43;17.70;;;5.30;;
67640;SDS011;54434;50.096;20.082;2023-02-22T01:06:22;19.70;;;5.00;;
67640;SDS011;54434;50.096;20.082;2023-02-22T01:08:58;15.90;;;4.50;;
67640;SDS011;54434;50.096;20.082;2023-02-22T01:11:35;18.10;;;4.50;;
67640;SDS011;54434;50.096;20.082;2023-02-22T01:14:13;21.60;;;5.00;;
67640;SDS011;54434;50.096;20.082;2023-02-22T01:16:51;20.20;;;5.10;;
67640;SDS011;54434;50.096;20.082;2023-02-22T01:19:29;19.50;;;5.40;;
67640;SDS011;54434;50.096;20.082;2023-02-22T01:22:06;22.50;;;5.50;;
67640;SDS011;54434;50.096;20.082;2023-02-22T01:24:43;20.40;;;5.20;;
67640;SDS011;54434;50.096;20.082;2023-02-22T01:27:20;18.20;;;5.80;;
67640;SDS011;54434;50.096;20.082;2023-02-22T01:29:56;17.90;;;5.90;;
67640;SDS011;54434;50.096;20.082;2023-02-22T01:32:33;16.60;;;5.90;;
67640;SDS011;54434;50.096;20.082;2023-02-22T01:35:14;19.40;;;6.30;;
67640;SDS011;54434;50.096;20.082;2023-02-22T01:37:52;21.00;;;6.90;;
67640;SDS011;54434;50.096;20.082;2023-02-22T01:40:34;23.60;;;7.00;;
67640;SDS011;54434;50.096;20.082;2023-02-22T01:43:21;17.80;;;6.10;;
67640;SDS011;54434;50.096;20.082;2023-02-22T01:46:02;20.20;;;6.30;;
67640;SDS011;54434;50.096;20.082;2023-02-22T01:48:46;23.10;;;7.60;;
67640;SDS011;54434;50.096;20.082;2023-02-22T01:51:32;20.80;;;6.70;;
67640;SDS011;54434;50.096;20.082;2023-02-22T01:54:18;23.40;;;7.60;;
67640;SDS011;54434;50.096;20.082;2023-02-22T01:57:04;23.10;;;6.70;;
67640;SDS011;54434;50.096;20.082;2023-02-22T01:59:52;23.60;;;7.00;;
67640;SDS011;54434;50.096;20.082;2023-02-22T02:02:32;22.50;;;7.10;;
67640;SDS011;54434;50.096;20.082;2023-02-22T02:05:10;20.00;;;6.90;;
67640;SDS011;54434;50.096;20.082;2023-02-22T02:07:47;22.00;;;7.50;;
67640;SDS011;54434;50.096;20.082;2023-02-22T02:10:26;23.70;;;7.20;;
67640;SDS011;54434;50.096;20.082;2023-02-22T02:13:03;21.20;;;7.20;;
67640;SDS011;54434;50.096;20.082;2023-02-22T02:15:41;28.00;;;7.40;;
67640;SDS011;54434;50.096;20.082;2023-02-22T02:18:18;22.80;;;6.90;;
67640;SDS011;54434;50.096;20.082;2023-02-22T02:21:32;25.30;;;7.60;;
67640;SDS011;54434;50.096;20.082;2023-02-22T02:24:57;22.60;;;7.60;;
67640;SDS011;54434;50.096;20.082;2023-02-22T02:28:19;22.40;;;7.20;;
67640;SDS011;54434;50.096;20.082;2023-02-22T02:34:46;19.80;;;6.90;;
67640;SDS011;54434;50.096;20.082;2023-02-22T02:37:35;23.00;;;7.30;;
67640;SDS011;54434;50.096;20.082;2023-02-22T02:40:25;21.80;;;7.80;;
67640;SDS011;54434;50.096;20.082;2023-02-22T02:43:16;22.20;;;8.20;;
67640;SDS011;54434;50.096;20.082;2023-02-22T02:46:04;23.70;;;7.30;;
67640;SDS011;54434;50.096;20.082;2023-02-22T02:48:53;21.00;;;7.40;;
67640;SDS011;54434;50.096;20.082;2023-02-22T02:51:37;23.00;;;6.90;;
67640;SDS011;54434;50.096;20.082;2023-02-22T02:54:20;22.70;;;7.40;;
67640;SDS011;54434;50.096;20.082;2023-02-22T02:56:58;29.20;;;7.70;;
67640;SDS011;54434;50.096;20.082;2023-02-22T02:59:39;28.10;;;8.20;;
67640;SDS011;54434;50.096;20.082;2023-02-22T03:02:35;35.30;;;8.40;;
67640;SDS011;54434;50.096;20.082;2023-02-22T03:05:40;23.50;;;7.50;;
67640;SDS011;54434;50.096;20.082;2023-02-22T03:08:40;23.80;;;7.70;;
67640;SDS011;54434;50.096;20.082;2023-02-22T03:11:26;22.80;;;7.40;;
67640;SDS011;54434;50.096;20.082;2023-02-22T03:14:19;21.80;;;7.70;;
67640;SDS011;54434;50.096;20.082;2023-02-22T03:17:08;23.10;;;7.80;;
67640;SDS011;54434;50.096;20.082;2023-02-22T03:20:03;26.20;;;7.50;;
67640;SDS011;54434;50.096;20.082;2023-02-22T03:22:51;24.30;;;7.90;;
67640;SDS011;54434;50.096;20.082;2023-02-22T03:25:35;26.40;;;8.20;;
67640;SDS011;54434;50.096;20.082;2023-02-22T03:28:20;29.40;;;8.60;;
67640;SDS011;54434;50.096;20.082;2023-02-22T03:31:06;23.90;;;7.00;;
67640;SDS011;54434;50.096;20.082;2023-02-22T03:33:50;22.80;;;6.70;;
67640;SDS011;54434;50.096;20.082;2023-02-22T03:36:34;25.60;;;7.60;;
67640;SDS011;54434;50.096;20.082;2023-02-22T03:39:16;25.50;;;7.90;;
67640;SDS011;54434;50.096;20.082;2023-02-22T03:41:54;23.20;;;7.10;;
67640;SDS011;54434;50.096;20.082;2023-02-22T03:44:36;19.00;;;7.00;;
67640;SDS011;54434;50.096;20.082;2023-02-22T03:47:20;26.00;;;7.40;;
67640;SDS011;54434;50.096;20.082;2023-02-22T03:50:08;25.90;;;8.40;;
67640;SDS011;54434;50.096;20.082;2023-02-22T03:52:48;26.60;;;7.00;;
67640;SDS011;54434;50.096;20.082;2023-02-22T03:58:09;20.60;;;6.20;;
67640;SDS011;54434;50.096;20.082;2023-02-22T04:00:48;20.80;;;6.80;;
67640;SDS011;54434;50.096;20.082;2023-02-22T04:03:26;23.20;;;7.60;;
67640;SDS011;54434;50.096;20.082;2023-02-22T04:06:03;20.20;;;6.80;;
67640;SDS011;54434;50.096;20.082;2023-02-22T04:08:40;16.80;;;6.40;;
67640;SDS011;54434;50.096;20.082;2023-02-22T04:11:16;22.30;;;8.00;;
67640;SDS011;54434;50.096;20.082;2023-02-22T04:13:53;18.50;;;6.50;;
67640;SDS011;54434;50.096;20.082;2023-02-22T04:16:31;19.50;;;7.20;;
67640;SDS011;54434;50.096;20.082;2023-02-22T04:19:11;23.30;;;7.30;;
67640;SDS011;54434;50.096;20.082;2023-02-22T04:21:49;25.10;;;7.90;;
67640;SDS011;54434;50.096;20.082;2023-02-22T04:24:29;25.00;;;7.40;;
67640;SDS011;54434;50.096;20.082;2023-02-22T04:27:06;25.50;;;7.00;;
67640;SDS011;54434;50.096;20.082;2023-02-22T04:29:43;23.00;;;7.00;;
67640;SDS011;54434;50.096;20.082;2023-02-22T04:32:20;22.10;;;7.90;;
67640;SDS011;54434;50.096;20.082;2023-02-22T04:34:56;21.80;;;7.50;;
67640;SDS011;54434;50.096;20.082;2023-02-22T04:37:35;22.40;;;6.50;;
67640;SDS011;54434;50.096;20.082;2023-02-22T04:40:15;22.60;;;6.60;;
67640;SDS011;54434;50.096;20.082;2023-02-22T04:42:53;20.40;;;7.10;;
67640;SDS011;54434;50.096;20.082;2023-02-22T04:45:29;20.00;;;6.30;;
67640;SDS011;54434;50.096;20.082;2023-02-22T04:48:08;25.90;;;6.80;;
67640;SDS011;54434;50.096;20.082;2023-02-22T04:50:44;30.20;;;7.10;;
67640;SDS011;54434;50.096;20.082;2023-02-22T04:53:21;20.60;;;7.00;;
67640;SDS011;54434;50.096;20.082;2023-02-22T04:55:58;21.90;;;6.90;;
67640;SDS011;54434;50.096;20.082;2023-02-22T04:58:34;21.50;;;7.20;;
67640;SDS011;54434;50.096;20.082;2023-02-22T05:01:11;26.80;;;7.50;;
67640;SDS011;54434;50.096;20.082;2023-02-22T05:03:52;21.90;;;7.00;;
67640;SDS011;54434;50.096;20.082;2023-02-22T05:06:28;27.10;;;7.30;;
67640;SDS011;54434;50.096;20.082;2023-02-22T05:09:05;19.30;;;6.70;;
67640;SDS011;54434;50.096;20.082;2023-02-22T05:11:41;23.30;;;7.00;;
67640;SDS011;54434;50.096;20.082;2023-02-22T05:14:18;24.80;;;7.40;;
67640;SDS011;54434;50.096;20.082;2023-02-22T05:16:56;26.40;;;7.80;;
67640;SDS011;54434;50.096;20.082;2023-02-22T05:19:33;24.70;;;7.20;;
67640;SDS011;54434;50.096;20.082;2023-02-22T05:22:11;19.20;;;6.70;;
67640;SDS011;54434;50.096;20.082;2023-02-22T05:24:48;20.80;;;6.90;;
67640;SDS011;54434;50.096;20.082;2023-02-22T05:27:26;25.80;;;7.50;;
67640;SDS011;54434;50.096;20.082;2023-02-22T05:30:02;21.00;;;7.00;;
67640;SDS011;54434;50.096;20.082;2023-02-22T05:32:41;21.70;;;7.40;;
67640;SDS011;54434;50.096;20.082;2023-02-22T05:35:20;16.50;;;6.90;;
67640;SDS011;54434;50.096;20.082;2023-02-22T05:37:57;24.80;;;7.70;;
67640;SDS011;54434;50.096;20.082;2023-02-22T05:40:36;21.80;;;6.90;;
67640;SDS011;54434;50.096;20.082;2023-02-22T05:43:12;24.90;;;8.00;;
67640;SDS011;54434;50.096;20.082;2023-02-22T05:45:49;22.90;;;7.00;;
67640;SDS011;54434;50.096;20.082;2023-02-22T05:48:25;30.30;;;8.50;;
67640;SDS011;54434;50.096;20.082;2023-02-22T05:51:02;30.60;;;8.10;;
67640;SDS011;54434;50.096;20.082;2023-02-22T05:53:40;33.50;;;8.70;;
67640;SDS011;54434;50.096;20.082;2023-02-22T05:56:21;24.60;;;8.00;;
67640;SDS011;54434;50.096;20.082;2023-02-22T05:59:01;27.20;;;8.40;;
67640;SDS011;54434;50.096;20.082;2023-02-22T06:01:38;27.60;;;8.50;;
67640;SDS011;54434;50.096;20.082;2023-02-22T06:04:14;31.50;;;8.60;;
67640;SDS011;54434;50.096;20.082;2023-02-22T06:06:52;25.30;;;8.50;;
67640;SDS011;54434;50.096;20.082;2023-02-22T06:09:29;30.20;;;8.10;;
67640;SDS011;54434;50.096;20.082;2023-02-22T06:12:07;28.60;;;8.80;;
67640;SDS011;54434;50.096;20.082;2023-02-22T06:14:44;23.60;;;7.90;;
67640;SDS011;54434;50.096;20.082;2023-02-22T06:17:20;30.90;;;8.50;;
67640;SDS011;54434;50.096;20.082;2023-02-22T06:19:57;27.50;;;7.90;;
67640;SDS011;54434;50.096;20.082;2023-02-22T06:22:33;33.10;;;9.00;;
67640;SDS011;54434;50.096;20.082;2023-02-22T06:25:14;30.40;;;8.10;;
67640;SDS011;54434;50.096;20.082;2023-02-22T06:27:53;27.40;;;8.10;;
67640;SDS011;54434;50.096;20.082;2023-02-22T06:30:29;29.10;;;9.40;;
67640;SDS011;54434;50.096;20.082;2023-02-22T06:33:06;25.80;;;8.50;;
67640;SDS011;54434;50.096;20.082;2023-02-22T06:35:44;25.10;;;7.60;;
67640;SDS011;54434;50.096;20.082;2023-02-22T06:38:25;24.10;;;9.20;;
67640;SDS011;54434;50.096;20.082;2023-02-22T06:41:01;27.10;;;7.60;;
67640;SDS011;54434;50.096;20.082;2023-02-22T06:43:38;24.00;;;7.30;;
67640;SDS011;54434;50.096;20.082;2023-02-22T06:46:14;27.70;;;8.20;;
67640;SDS011;54434;50.096;20.082;2023-02-22T06:48:52;27.10;;;8.10;;
67640;SDS011;54434;50.096;20.082;2023-02-22T06:51:30;25.50;;;8.40;;
67640;SDS011;54434;50.096;20.082;2023-02-22T06:54:11;22.40;;;7.90;;
67640;SDS011;54434;50.096;20.082;2023-02-22T06:56:48;23.40;;;8.60;;
67640;SDS011;54434;50.096;20.082;2023-02-22T06:59:25;30.40;;;8.70;;
67640;SDS011;54434;50.096;20.082;2023-02-22T07:02:02;23.60;;;8.10;;
67640;SDS011;54434;50.096;20.082;2023-02-22T07:04:39;27.90;;;9.40;;
67640;SDS011;54434;50.096;20.082;2023-02-22T07:07:16;26.50;;;8.90;;
67640;SDS011;54434;50.096;20.082;2023-02-22T07:09:55;28.10;;;8.50;;
67640;SDS011;54434;50.096;20.082;2023-02-22T07:12:32;24.10;;;8.50;;
67640;SDS011;54434;50.096;20.082;2023-02-22T07:15:09;25.60;;;8.20;;
67640;SDS011;54434;50.096;20.082;2023-02-22T07:17:46;24.90;;;8.60;;
67640;SDS011;54434;50.096;20.082;2023-02-22T07:20:23;21.70;;;8.20;;
67640;SDS011;54434;50.096;20.082;2023-02-22T07:23:02;28.80;;;9.40;;
67640;SDS011;54434;50.096;20.082;2023-02-22T07:25:40;20.40;;;7.30;;
67640;SDS011;54434;50.096;20.082;2023-02-22T07:28:17;27.60;;;8.30;;
67640;SDS011;54434;50.096;20.082;2023-02-22T07:30:53;24.00;;;7.80;;
67640;SDS011;54434;50.096;20.082;2023-02-22T07:33:29;24.00;;;7.70;;
67640;SDS011;54434;50.096;20.082;2023-02-22T07:36:07;22.70;;;8.20;;
67640;SDS011;54434;50.096;20.082;2023-02-22T07:38:46;29.20;;;8.80;;
67640;SDS011;54434;50.096;20.082;2023-02-22T07:41:23;27.80;;;7.70;;
67640;SDS011;54434;50.096;20.082;2023-02-22T07:43:59;27.10;;;9.00;;
67640;SDS011;54434;50.096;20.082;2023-02-22T07:46:36;25.00;;;8.00;;
67640;SDS011;54434;50.096;20.082;2023-02-22T07:49:13;26.20;;;8.00;;
67640;SDS011;54434;50.096;20.082;2023-02-22T07:51:49;32.30;;;8.20;;
67640;SDS011;54434;50.096;20.082;2023-02-22T07:54:26;27.40;;;7.90;;
67640;SDS011;54434;50.096;20.082;2023-02-22T07:57:02;27.40;;;8.10;;
67640;SDS011;54434;50.096;20.082;2023-02-22T07:59:39;30.80;;;7.30;;
67640;SDS011;54434;50.096;20.082;2023-02-22T08:02:17;20.70;;;6.70;;
67640;SDS011;54434;50.096;20.082;2023-02-22T08:04:54;24.00;;;7.00;;
67640;SDS011;54434;50.096;20.082;2023-02-22T08:07:30;26.10;;;8.40;;
67640;SDS011;54434;50.096;20.082;2023-02-22T08:10:09;26.50;;;7.60;;
67640;SDS011;54434;50.096;20.082;2023-02-22T08:12:47;27.00;;;7.70;;
67640;SDS011;54434;50.096;20.082;2023-02-22T08:15:27;24.80;;;7.60;;
67640;SDS011;54434;50.096;20.082;2023-02-22T08:18:07;25.20;;;7.40;;
67640;SDS011;54434;50.096;20.082;2023-02-22T08:20:47;29.40;;;8.30;;
67640;SDS011;54434;50.096;20.082;2023-02-22T08:23:26;22.30;;;7.30;;
67640;SDS011;54434;50.096;20.082;2023-02-22T08:26:09;20.70;;;6.90;;
67640;SDS011;54434;50.096;20.082;2023-02-22T08:28:50;21.90;;;6.20;;
67640;SDS011;54434;50.096;20.082;2023-02-22T08:31:26;24.20;;;5.60;;
67640;SDS011;54434;50.096;20.082;2023-02-22T08:34:03;21.10;;;6.10;;
67640;SDS011;54434;50.096;20.082;2023-02-22T08:36:44;24.90;;;5.90;;
67640;SDS011;54434;50.096;20.082;2023-02-22T08:39:22;21.40;;;6.10;;
67640;SDS011;54434;50.096;20.082;2023-02-22T08:42:01;22.10;;;6.20;;
67640;SDS011;54434;50.096;20.082;2023-02-22T08:44:38;16.10;;;4.90;;
67640;SDS011;54434;50.096;20.082;2023-02-22T08:47:15;17.80;;;5.80;;
67640;SDS011;54434;50.096;20.082;2023-02-22T08:49:52;20.60;;;5.00;;
67640;SDS011;54434;50.096;20.082;2023-02-22T08:52:29;15.10;;;5.40;;
67640;SDS011;54434;50.096;20.082;2023-02-22T08:55:07;19.60;;;5.60;;
67640;SDS011;54434;50.096;20.082;2023-02-22T08:57:43;23.60;;;5.70;;
67640;SDS011;54434;50.096;20.082;2023-02-22T09:00:22;20.20;;;5.30;;
67640;SDS011;54434;50.096;20.082;2023-02-22T09:02:59;19.30;;;5.40;;
67640;SDS011;54434;50.096;20.082;2023-02-22T09:05:37;15.00;;;4.70;;
67640;SDS011;54434;50.096;20.082;2023-02-22T09:08:16;22.80;;;5.00;;
67640;SDS011;54434;50.096;20.082;2023-02-22T09:10:52;21.20;;;6.10;;
67640;SDS011;54434;50.096;20.082;2023-02-22T09:13:29;16.30;;;4.80;;
67640;SDS011;54434;50.096;20.082;2023-02-22T09:16:07;15.50;;;5.20;;
67640;SDS011;54434;50.096;20.082;2023-02-22T09:18:43;16.70;;;4.70;;
67640;SDS011;54434;50.096;20.082;2023-02-22T09:21:20;15.30;;;5.10;;
67640;SDS011;54434;50.096;20.082;2023-02-22T09:23:56;15.00;;;4.30;;
67640;SDS011;54434;50.096;20.082;2023-02-22T09:26:40;18.20;;;4.90;;
67640;SDS011;54434;50.096;20.082;2023-02-22T09:29:28;17.70;;;4.90;;
67640;SDS011;54434;50.096;20.082;2023-02-22T09:32:05;14.70;;;4.10;;
67640;SDS011;54434;50.096;20.082;2023-02-22T09:34:41;12.40;;;3.90;;
67640;SDS011;54434;50.096;20.082;2023-02-22T09:37:19;19.30;;;3.90;;
67640;SDS011;54434;50.096;20.082;2023-02-22T09:39:56;13.70;;;4.20;;
67640;SDS011;54434;50.096;20.082;2023-02-22T09:42:36;13.40;;;3.80;;
67640;SDS011;54434;50.096;20.082;2023-02-22T09:45:22;14.60;;;3.60;;
67640;SDS011;54434;50.096;20.082;2023-02-22T09:48:10;12.10;;;3.00;;
67640;SDS011;54434;50.096;20.082;2023-02-22T09:50:58;9.20;;;2.70;;
67640;SDS011;54434;50.096;20.082;2023-02-22T09:53:46;10.20;;;2.60;;
67640;SDS011;54434;50.096;20.082;2023-02-22T09:56:25;8.80;;;2.40;;
67640;SDS011;54434;50.096;20.082;2023-02-22T09:59:06;11.20;;;3.30;;
67640;SDS011;54434;50.096;20.082;2023-02-22T10:01:48;9.70;;;2.70;;
67640;SDS011;54434;50.096;20.082;2023-02-22T10:04:45;18.20;;;7.50;;
67640;SDS011;54434;50.096;20.082;2023-02-22T10:07:32;13.60;;;3.20;;
67640;SDS011;54434;50.096;20.082;2023-02-22T10:10:18;16.50;;;3.20;;
67640;SDS011;54434;50.096;20.082;2023-02-22T10:13:07;11.00;;;3.00;;
67640;SDS011;54434;50.096;20.082;2023-02-22T10:16:00;10.80;;;3.00;;
67640;SDS011;54434;50.096;20.082;2023-02-22T10:19:16;12.60;;;3.50;;
67640;SDS011;54434;50.096;20.082;2023-02-22T10:22:17;14.80;;;3.30;;
67640;SDS011;54434;50.096;20.082;2023-02-22T10:25:10;12.30;;;3.10;;
67640;SDS011;54434;50.096;20.082;2023-02-22T10:27:56;10.50;;;3.10;;
67640;SDS011;54434;50.096;20.082;2023-02-22T10:30:39;10.60;;;2.70;;
67640;SDS011;54434;50.096;20.082;2023-02-22T10:33:23;12.00;;;2.50;;
67640;SDS011;54434;50.096;20.082;2023-02-22T10:36:04;10.50;;;2.60;;
67640;SDS011;54434;50.096;20.082;2023-02-22T10:38:55;13.00;;;2.60;;
67640;SDS011;54434;50.096;20.082;2023-02-22T10:41:37;12.20;;;3.80;;
67640;SDS011;54434;50.096;20.082;2023-02-22T10:44:18;26.70;;;11.60;;
67640;SDS011;54434;50.096;20.082;2023-02-22T10:46:55;10.80;;;3.50;;
67640;SDS011;54434;50.096;20.082;2023-02-22T10:49:38;11.50;;;3.10;;
67640;SDS011;54434;50.096;20.082;2023-02-22T10:52:24;12.80;;;4.40;;
67640;SDS011;54434;50.096;20.082;2023-02-22T10:55:05;12.10;;;3.40;;
67640;SDS011;54434;50.096;20.082;2023-02-22T10:57:51;15.00;;;3.80;;
67640;SDS011;54434;50.096;20.082;2023-02-22T11:00:39;10.30;;;3.30;;
67640;SDS011;54434;50.096;20.082;2023-02-22T11:03:21;12.00;;;3.50;;
67640;SDS011;54434;50.096;20.082;2023-02-22T11:06:18;11.60;;;3.70;;
67640;SDS011;54434;50.096;20.082;2023-02-22T11:09:05;11.40;;;3.60;;
67640;SDS011;54434;50.096;20.082;2023-02-22T11:11:45;36.50;;;16.60;;
67640;SDS011;54434;50.096;20.082;2023-02-22T11:14:29;16.10;;;7.10;;
67640;SDS011;54434;50.096;20.082;2023-02-22T11:17:08;9.10;;;3.50;;
67640;SDS011;54434;50.096;20.082;2023-02-22T11:19:51;16.70;;;4.00;;
67640;SDS011;54434;50.096;20.082;2023-02-22T11:22:38;14.70;;;3.70;;
67640;SDS011;54434;50.096;20.082;2023-02-22T11:25:34;11.10;;;3.30;;
67640;SDS011;54434;50.096;20.082;2023-02-22T11:28:26;15.00;;;3.90;;
67640;SDS011;54434;50.096;20.082;2023-02-22T11:31:20;12.20;;;3.20;;
67640;SDS011;54434;50.096;20.082;2023-02-22T11:34:01;15.00;;;3.90;;
67640;SDS011;54434;50.096;20.082;2023-02-22T11:36:40;10.30;;;3.10;;
67640;SDS011;54434;50.096;20.082;2023-02-22T11:39:28;11.50;;;3.30;;
67640;SDS011;54434;50.096;20.082;2023-02-22T11:42:22;13.80;;;3.50;;
67640;SDS011;54434;50.096;20.082;2023-02-22T11:45:19;11.70;;;3.80;;
67640;SDS011;54434;50.096;20.082;2023-02-22T11:47:59;16.80;;;3.80;;
67640;SDS011;54434;50.096;20.082;2023-02-22T11:50:53;13.40;;;3.70;;
67640;SDS011;54434;50.096;20.082;2023-02-22T11:53:55;10.80;;;4.00;;
67640;SDS011;54434;50.096;20.082;2023-02-22T11:57:07;22.60;;;7.90;;
67640;SDS011;54434;50.096;20.082;2023-02-22T12:00:06;11.30;;;3.10;;
67640;SDS011;54434;50.096;20.082;2023-02-22T12:03:31;12.20;;;3.30;;
67640;SDS011;54434;50.096;20.082;2023-02-22T12:06:33;9.90;;;3.20;;
67640;SDS011;54434;50.096;20.082;2023-02-22T12:09:26;9.60;;;3.30;;
67640;SDS011;54434;50.096;20.082;2023-02-22T12:12:20;12.40;;;3.30;;
67640;SDS011;54434;50.096;20.082;2023-02-22T12:15:07;7.50;;;3.00;;
67640;SDS011;54434;50.096;20.082;2023-02-22T12:18:01;11.40;;;3.10;;
67640;SDS011;54434;50.096;20.082;2023-02-22T12:20:50;12.70;;;3.30;;
67640;SDS011;54434;50.096;20.082;2023-02-22T12:23:39;8.80;;;2.80;;
67640;SDS011;54434;50.096;20.082;2023-02-22T12:26:28;11.70;;;2.90;;
67640;SDS011;54434;50.096;20.082;2023-02-22T12:29:15;10.60;;;3.00;;
67640;SDS011;54434;50.096;20.082;2023-02-22T12:32:05;8.90;;;3.60;;
67640;SDS011;54434;50.096;20.082;2023-02-22T12:34:50;10.90;;;4.20;;
67640;SDS011;54434;50.096;20.082;2023-02-22T12:37:36;11.10;;;3.50;;
67640;SDS011;54434;50.096;20.082;2023-02-22T12:40:33;11.20;;;3.40;;
67640;SDS011;54434;50.096;20.082;2023-02-22T12:43:17;13.40;;;3.40;;
67640;SDS011;54434;50.096;20.082;2023-02-22T12:46:04;10.80;;;3.40;;
67640;SDS011;54434;50.096;20.082;2023-02-22T12:48:50;12.30;;;3.70;;
67640;SDS011;54434;50.096;20.082;2023-02-22T12:51:37;12.40;;;3.70;;
67640;SDS011;54434;50.096;20.082;2023-02-22T12:54:22;15.90;;;6.00;;
67640;SDS011;54434;50.096;20.082;2023-02-22T12:57:15;32.50;;;15.40;;
67640;SDS011;54434;50.096;20.082;2023-02-22T13:00:05;11.20;;;4.30;;
67640;SDS011;54434;50.096;20.082;2023-02-22T13:02:56;12.80;;;4.60;;
67640;SDS011;54434;50.096;20.082;2023-02-22T13:05:38;17.10;;;3.70;;
67640;SDS011;54434;50.096;20.082;2023-02-22T13:08:28;14.20;;;4.20;;
67640;SDS011;54434;50.096;20.082;2023-02-22T13:11:20;9.80;;;4.00;;
67640;SDS011;54434;50.096;20.082;2023-02-22T13:14:15;9.50;;;3.90;;
67640;SDS011;54434;50.096;20.082;2023-02-22T13:17:08;9.60;;;3.80;;
67640;SDS011;54434;50.096;20.082;2023-02-22T13:20:00;12.20;;;4.60;;
67640;SDS011;54434;50.096;20.082;2023-02-22T13:22:48;12.30;;;4.60;;
67640;SDS011;54434;50.096;20.082;2023-02-22T13:25:39;13.90;;;5.20;;
67640;SDS011;54434;50.096;20.082;2023-02-22T13:28:30;17.40;;;4.70;;
67640;SDS011;54434;50.096;20.082;2023-02-22T13:31:35;13.90;;;4.50;;
67640;SDS011;54434;50.096;20.082;2023-02-22T13:34:46;16.00;;;7.00;;
67640;SDS011;54434;50.096;20.082;2023-02-22T13:38:13;14.50;;;5.50;;
67640;SDS011;54434;50.096;20.082;2023-02-22T13:41:22;16.90;;;4.80;;
67640;SDS011;54434;50.096;20.082;2023-02-22T13:44:51;12.60;;;4.60;;
67640;SDS011;54434;50.096;20.082;2023-02-22T13:48:06;12.80;;;4.80;;
67640;SDS011;54434;50.096;20.082;2023-02-22T13:51:14;15.00;;;4.20;;
67640;SDS011;54434;50.096;20.082;2023-02-22T13:54:11;11.00;;;4.20;;
67640;SDS011;54434;50.096;20.082;2023-02-22T13:56:57;9.70;;;3.80;;
67640;SDS011;54434;50.096;20.082;2023-02-22T13:59:37;13.10;;;4.30;;
67640;SDS011;54434;50.096;20.082;2023-02-22T14:02:33;12.50;;;4.30;;
67640;SDS011;54434;50.096;20.082;2023-02-22T14:05:53;17.80;;;7.60;;
67640;SDS011;54434;50.096;20.082;2023-02-22T14:08:47;12.20;;;4.90;;
67640;SDS011;54434;50.096;20.082;2023-02-22T14:11:50;14.90;;;4.20;;
67640;SDS011;54434;50.096;20.082;2023-02-22T14:14:29;10.20;;;4.00;;
67640;SDS011;54434;50.096;20.082;2023-02-22T14:17:32;13.10;;;4.50;;
67640;SDS011;54434;50.096;20.082;2023-02-22T14:20:28;14.70;;;4.40;;
67640;SDS011;54434;50.096;20.082;2023-02-22T14:23:37;14.50;;;4.30;;
67640;SDS011;54434;50.096;20.082;2023-02-22T14:26:21;9.20;;;4.10;;
67640;SDS011;54434;50.096;20.082;2023-02-22T14:29:15;15.30;;;4.10;;
67640;SDS011;54434;50.096;20.082;2023-02-22T14:32:09;12.50;;;3.90;;
67640;SDS011;54434;50.096;20.082;2023-02-22T14:34:52;15.50;;;5.00;;
67640;SDS011;54434;50.096;20.082;2023-02-22T14:37:37;9.20;;;4.20;;
67640;SDS011;54434;50.096;20.082;2023-02-22T14:40:23;14.60;;;4.50;;
67640;SDS011;54434;50.096;20.082;2023-02-22T14:43:07;12.50;;;4.30;;
67640;SDS011;54434;50.096;20.082;2023-02-22T14:45:59;11.20;;;4.00;;
67640;SDS011;54434;50.096;20.082;2023-02-22T14:48:39;12.80;;;4.60;;
67640;SDS011;54434;50.096;20.082;2023-02-22T14:51:21;12.00;;;4.40;;
67640;SDS011;54434;50.096;20.082;2023-02-22T14:54:07;15.80;;;4.00;;
67640;SDS011;54434;50.096;20.082;2023-02-22T14:56:59;14.30;;;4.20;;
67640;SDS011;54434;50.096;20.082;2023-02-22T14:59:54;14.20;;;4.60;;
67640;SDS011;54434;50.096;20.082;2023-02-22T15:02:44;11.40;;;4.70;;
67640;SDS011;54434;50.096;20.082;2023-02-22T15:05:22;13.80;;;4.90;;
67640;SDS011;54434;50.096;20.082;2023-02-22T15:08:05;11.30;;;4.30;;
67640;SDS011;54434;50.096;20.082;2023-02-22T15:10:45;12.80;;;4.40;;
67640;SDS011;54434;50.096;20.082;2023-02-22T15:13:29;16.00;;;5.30;;
67640;SDS011;54434;50.096;20.082;2023-02-22T15:16:11;15.30;;;5.50;;
67640;SDS011;54434;50.096;20.082;2023-02-22T15:18:52;15.80;;;5.30;;
67640;SDS011;54434;50.096;20.082;2023-02-22T15:21:32;15.20;;;4.90;;
67640;SDS011;54434;50.096;20.082;2023-02-22T15:24:10;17.30;;;5.40;;
67640;SDS011;54434;50.096;20.082;2023-02-22T15:26:55;15.50;;;4.90;;
67640;SDS011;54434;50.096;20.082;2023-02-22T15:29:40;14.20;;;6.40;;
67640;SDS011;54434;50.096;20.082;2023-02-22T15:32:32;21.80;;;8.10;;
67640;SDS011;54434;50.096;20.082;2023-02-22T15:35:31;30.30;;;13.60;;
67640;SDS011;54434;50.096;20.082;2023-02-22T15:41:05;14.50;;;5.60;;
67640;SDS011;54434;50.096;20.082;2023-02-22T15:44:06;15.20;;;5.60;;
67640;SDS011;54434;50.096;20.082;2023-02-22T15:46:56;15.70;;;5.50;;
67640;SDS011;54434;50.096;20.082;2023-02-22T15:49:33;16.80;;;5.70;;
67640;SDS011;54434;50.096;20.082;2023-02-22T15:52:17;19.60;;;5.90;;
67640;SDS011;54434;50.096;20.082;2023-02-22T15:54:58;16.30;;;5.90;;
67640;SDS011;54434;50.096;20.082;2023-02-22T15:57:36;18.20;;;6.30;;
67640;SDS011;54434;50.096;20.082;2023-02-22T16:00:24;18.40;;;7.40;;
67640;SDS011;54434;50.096;20.082;2023-02-22T16:03:10;17.60;;;7.40;;
67640;SDS011;54434;50.096;20.082;2023-02-22T16:05:50;23.70;;;8.90;;
67640;SDS011;54434;50.096;20.082;2023-02-22T16:08:39;23.20;;;9.30;;